createdAt,value
2017-05-22T00:01:10.871Z,0
2017-05-22T00:02:33.019Z,0
2017-05-22T00:03:55.201Z,0
2017-05-22T00:05:17.331Z,0
2017-05-22T00:06:39.261Z,0
2017-05-22T00:08:01.431Z,0
2017-05-22T00:09:23.578Z,0
2017-05-22T00:10:45.522Z,0
2017-05-22T00:12:07.447Z,0
2017-05-22T00:13:29.332Z,0
2017-05-22T00:14:51.594Z,0
2017-05-22T00:16:14.361Z,0
2017-05-22T00:17:35.882Z,0
2017-05-22T00:18:57.481Z,0
2017-05-22T00:20:19.001Z,0
2017-05-22T00:21:40.954Z,0
2017-05-22T00:23:03.438Z,0
2017-05-22T00:24:24.990Z,0
2017-05-22T00:25:47.438Z,0
2017-05-22T00:27:10.262Z,0
2017-05-22T00:28:32.102Z,0
2017-05-22T00:29:53.922Z,0
2017-05-22T00:31:15.761Z,0
2017-05-22T00:32:38.034Z,0
2017-05-22T00:33:59.585Z,0
2017-05-22T00:35:21.427Z,0
2017-05-22T00:36:43.905Z,0
2017-05-22T00:38:06.080Z,0
2017-05-22T00:39:27.977Z,0
2017-05-22T00:40:49.483Z,0
2017-05-22T00:42:11.010Z,0
2017-05-22T00:43:32.817Z,0
2017-05-22T00:44:54.729Z,0
2017-05-22T00:46:17.202Z,0
2017-05-22T00:47:39.411Z,0
2017-05-22T00:49:01.281Z,0
2017-05-22T00:50:23.419Z,0
2017-05-22T00:51:45.241Z,0
2017-05-22T00:53:07.711Z,0
2017-05-22T00:54:30.162Z,0
2017-05-22T00:55:51.691Z,0
2017-05-22T00:57:13.301Z,0
2017-05-22T00:58:35.210Z,0
2017-05-22T00:59:57.391Z,0
2017-05-22T01:01:19.873Z,0
2017-05-22T01:02:42.061Z,0
2017-05-22T01:04:03.932Z,0
2017-05-22T01:05:26.220Z,0
2017-05-22T01:06:48.141Z,0
2017-05-22T01:08:09.966Z,0
2017-05-22T01:09:31.912Z,0
2017-05-22T01:10:54.049Z,0
2017-05-22T01:12:16.197Z,0
2017-05-22T01:13:38.013Z,0
2017-05-22T01:15:00.522Z,0
2017-05-22T01:16:22.650Z,0
2017-05-22T01:17:44.151Z,0
2017-05-22T01:19:06.621Z,0
2017-05-22T01:20:28.141Z,0
2017-05-22T01:21:50.323Z,0
2017-05-22T01:23:11.520Z,0
2017-05-22T01:24:33.741Z,0
2017-05-22T01:25:55.242Z,0
2017-05-22T01:27:16.729Z,0
2017-05-22T01:28:38.240Z,0
2017-05-22T01:30:00.462Z,0
2017-05-22T01:31:22.960Z,0
2017-05-22T01:32:45.771Z,0
2017-05-22T01:34:07.023Z,0
2017-05-22T01:35:29.492Z,0
2017-05-22T01:36:51.640Z,0
2017-05-22T01:38:13.781Z,0
2017-05-22T01:39:36.240Z,0
2017-05-22T01:40:58.490Z,0
2017-05-22T01:42:19.991Z,0
2017-05-22T01:43:42.439Z,0
2017-05-22T01:45:03.952Z,0
2017-05-22T01:46:26.103Z,0
2017-05-22T01:47:48.233Z,0
2017-05-22T01:49:10.670Z,0
2017-05-22T01:50:31.858Z,0
2017-05-22T01:51:53.368Z,0
2017-05-22T01:53:14.891Z,0
2017-05-22T01:54:37.351Z,0
2017-05-22T01:55:59.198Z,0
2017-05-22T01:57:20.390Z,0
2017-05-22T01:58:42.584Z,0
2017-05-22T02:00:05.035Z,0
2017-05-22T02:01:26.256Z,0
2017-05-22T02:02:47.451Z,0
2017-05-22T02:04:09.270Z,0
2017-05-22T02:05:30.864Z,0
2017-05-22T02:06:52.737Z,0
2017-05-22T02:08:15.080Z,0
2017-05-22T02:09:37.332Z,0
2017-05-22T02:10:58.980Z,0
2017-05-22T02:12:20.941Z,0
2017-05-22T02:13:43.405Z,0
2017-05-22T02:15:05.039Z,0
2017-05-22T02:16:26.560Z,0
2017-05-22T02:17:48.180Z,0
2017-05-22T02:19:10.021Z,0
2017-05-22T02:20:32.471Z,0
2017-05-22T02:21:54.669Z,0
2017-05-22T02:23:15.980Z,0
2017-05-22T02:24:37.226Z,0
2017-05-22T02:25:59.212Z,0
2017-05-22T02:27:21.692Z,0
2017-05-22T02:28:43.286Z,0
2017-05-22T02:30:05.120Z,0
2017-05-22T02:31:27.641Z,0
2017-05-22T02:32:49.830Z,0
2017-05-22T02:34:11.353Z,0
2017-05-22T02:35:32.892Z,0
2017-05-22T02:36:55.180Z,0
2017-05-22T02:38:17.674Z,0
2017-05-22T02:39:39.634Z,0
2017-05-22T02:41:01.541Z,0
2017-05-22T02:42:23.500Z,0
2017-05-22T02:43:45.897Z,0
2017-05-22T02:45:07.420Z,0
2017-05-22T02:46:29.559Z,0
2017-05-22T02:47:51.071Z,0
2017-05-22T02:49:13.660Z,0
2017-05-22T02:50:35.590Z,0
2017-05-22T02:51:57.719Z,0
2017-05-22T02:53:19.610Z,0
2017-05-22T02:54:42.120Z,0
2017-05-22T02:56:04.066Z,0
2017-05-22T02:57:25.880Z,0
2017-05-22T02:58:47.718Z,0
2017-05-22T03:00:09.480Z,0
2017-05-22T03:01:31.064Z,0
2017-05-22T03:02:52.591Z,0
2017-05-22T03:04:14.840Z,5
2017-05-22T03:05:36.976Z,5
2017-05-22T03:06:59.421Z,5
2017-05-22T03:08:21.443Z,5
2017-05-22T03:09:43.620Z,5
2017-05-22T03:11:06.169Z,5
2017-05-22T03:12:28.328Z,5
2017-05-22T03:13:50.171Z,5
2017-05-22T03:15:12.310Z,10
2017-05-22T03:16:34.430Z,10
2017-05-22T03:17:56.263Z,10
2017-05-22T03:19:17.478Z,10
2017-05-22T03:20:39.104Z,15
2017-05-22T03:22:00.911Z,15
2017-05-22T03:23:22.428Z,15
2017-05-22T03:24:44.624Z,20
2017-05-22T03:26:06.129Z,20
2017-05-22T03:27:28.707Z,25
2017-05-22T03:28:50.523Z,25
2017-05-22T03:30:12.992Z,25
2017-05-22T03:31:34.837Z,30
2017-05-22T03:32:56.730Z,30
2017-05-22T03:34:18.808Z,35
2017-05-22T03:35:41.059Z,35
2017-05-22T03:37:03.232Z,40
2017-05-22T03:38:25.353Z,40
2017-05-22T03:39:47.169Z,40
2017-05-22T03:41:08.710Z,45
2017-05-22T03:42:30.236Z,45
2017-05-22T03:43:51.738Z,50
2017-05-22T03:45:13.989Z,50
2017-05-22T03:46:35.550Z,55
2017-05-22T03:47:57.480Z,60
2017-05-22T03:49:19.601Z,60
2017-05-22T03:50:41.321Z,65
2017-05-22T03:52:03.792Z,65
2017-05-22T03:53:25.930Z,70
2017-05-22T03:54:48.747Z,70
2017-05-22T03:56:10.621Z,70
2017-05-22T03:57:32.449Z,75
2017-05-22T03:58:54.340Z,80
2017-05-22T04:00:16.260Z,80
2017-05-22T04:01:38.149Z,85
2017-05-22T04:03:00.634Z,85
2017-05-22T04:04:22.460Z,90
2017-05-22T04:05:43.999Z,90
2017-05-22T04:07:05.831Z,95
2017-05-22T04:08:28.317Z,95
2017-05-22T04:09:50.161Z,100
2017-05-22T04:11:12.614Z,100
2017-05-22T04:12:35.070Z,105
2017-05-22T04:13:57.221Z,105
2017-05-22T04:15:19.041Z,110
2017-05-22T04:16:41.421Z,115
2017-05-22T04:18:02.952Z,120
2017-05-22T04:19:24.828Z,120
2017-05-22T04:20:46.334Z,125
2017-05-22T04:22:09.141Z,125
2017-05-22T04:23:30.990Z,125
2017-05-22T04:24:52.808Z,125
2017-05-22T04:26:14.656Z,130
2017-05-22T04:27:37.292Z,130
2017-05-22T04:28:58.548Z,130
2017-05-22T04:30:20.050Z,135
2017-05-22T04:31:42.190Z,135
2017-05-22T04:33:04.393Z,135
2017-05-22T04:34:26.941Z,140
2017-05-22T04:35:48.783Z,145
2017-05-22T04:37:10.622Z,145
2017-05-22T04:38:33.442Z,150
2017-05-22T04:39:55.615Z,150
2017-05-22T04:41:17.131Z,155
2017-05-22T04:42:39.669Z,155
2017-05-22T04:44:01.859Z,160
2017-05-22T04:45:23.382Z,165
2017-05-22T04:46:45.540Z,165
2017-05-22T04:48:07.677Z,175
2017-05-22T04:49:30.501Z,180
2017-05-22T04:50:53.020Z,185
2017-05-22T04:52:15.162Z,190
2017-05-22T04:53:37.444Z,200
2017-05-22T04:54:59.401Z,215
2017-05-22T04:56:20.990Z,230
2017-05-22T04:57:42.280Z,400
2017-05-22T04:59:04.261Z,570
2017-05-22T05:00:27.023Z,595
2017-05-22T05:01:48.878Z,610
2017-05-22T05:03:10.711Z,615
2017-05-22T05:04:32.560Z,615
2017-05-22T05:05:55.240Z,630
2017-05-22T05:07:17.170Z,650
2017-05-22T05:08:38.700Z,700
2017-05-22T05:10:00.597Z,720
2017-05-22T05:11:23.163Z,735
2017-05-22T05:12:45.359Z,755
2017-05-22T05:14:07.973Z,785
2017-05-22T05:15:29.852Z,810
2017-05-22T05:16:52.021Z,850
2017-05-22T05:18:14.591Z,855
2017-05-22T05:19:36.513Z,895
2017-05-22T05:20:59.197Z,905
2017-05-22T05:22:21.109Z,930
2017-05-22T05:23:43.270Z,930
2017-05-22T05:25:05.257Z,960
2017-05-22T05:26:26.971Z,985
2017-05-22T05:27:48.910Z,950
2017-05-22T05:29:11.070Z,980
2017-05-22T05:30:33.242Z,1020
2017-05-22T05:31:55.864Z,1005
2017-05-22T05:33:18.712Z,1015
2017-05-22T05:34:40.908Z,975
2017-05-22T05:36:02.515Z,990
2017-05-22T05:37:24.375Z,1015
2017-05-22T05:38:46.541Z,935
2017-05-22T05:40:09.031Z,915
2017-05-22T05:41:30.886Z,880
2017-05-22T05:42:52.749Z,805
2017-05-22T05:44:15.162Z,750
2017-05-22T05:45:37.010Z,725
2017-05-22T05:46:58.545Z,680
2017-05-22T05:48:20.391Z,660
2017-05-22T05:49:42.907Z,640
2017-05-22T05:51:04.121Z,630
2017-05-22T05:52:26.063Z,615
2017-05-22T05:53:48.240Z,605
2017-05-22T05:55:10.332Z,615
2017-05-22T05:56:32.184Z,640
2017-05-22T05:57:54.681Z,645
2017-05-22T05:59:17.179Z,635
2017-05-22T06:00:39.108Z,620
2017-05-22T06:02:01.341Z,620
2017-05-22T06:03:23.283Z,630
2017-05-22T06:04:45.132Z,620
2017-05-22T06:06:07.277Z,605
2017-05-22T06:07:28.803Z,610
2017-05-22T06:08:50.981Z,620
2017-05-22T06:10:12.850Z,605
2017-05-22T06:11:34.691Z,605
2017-05-22T06:12:56.540Z,585
2017-05-22T06:14:18.380Z,550
2017-05-22T06:15:40.540Z,520
2017-05-22T06:17:02.685Z,515
2017-05-22T06:18:24.553Z,515
2017-05-22T06:19:47.048Z,500
2017-05-22T06:21:08.581Z,510
2017-05-22T06:22:30.371Z,495
2017-05-22T06:23:52.870Z,490
2017-05-22T06:25:15.038Z,490
2017-05-22T06:26:36.572Z,490
2017-05-22T06:27:58.781Z,490
2017-05-22T06:29:21.310Z,505
2017-05-22T06:30:43.170Z,520
2017-05-22T06:32:05.018Z,520
2017-05-22T06:33:27.542Z,520
2017-05-22T06:34:50.020Z,525
2017-05-22T06:36:11.879Z,525
2017-05-22T06:37:33.466Z,530
2017-05-22T06:38:56.122Z,530
2017-05-22T06:40:18.619Z,530
2017-05-22T06:41:41.122Z,530
2017-05-22T06:43:02.662Z,535
2017-05-22T06:44:25.190Z,535
2017-05-22T06:45:47.501Z,530
2017-05-22T06:47:09.601Z,535
2017-05-22T06:48:31.766Z,555
2017-05-22T06:49:53.282Z,580
2017-05-22T06:51:15.430Z,590
2017-05-22T06:52:37.289Z,560
2017-05-22T06:53:59.180Z,550
2017-05-22T06:55:20.959Z,545
2017-05-22T06:56:43.106Z,555
2017-05-22T06:58:05.001Z,550
2017-05-22T06:59:26.860Z,555
2017-05-22T07:00:48.652Z,545
2017-05-22T07:02:10.812Z,545
2017-05-22T07:03:32.339Z,545
2017-05-22T07:04:53.873Z,550
2017-05-22T07:06:16.291Z,545
2017-05-22T07:07:38.469Z,545
2017-05-22T07:09:00.007Z,540
2017-05-22T07:10:21.616Z,545
2017-05-22T07:11:42.987Z,540
2017-05-22T07:13:04.529Z,540
2017-05-22T07:14:26.756Z,535
2017-05-22T07:15:48.934Z,540
2017-05-22T07:17:11.350Z,530
2017-05-22T07:18:33.559Z,530
2017-05-22T07:19:55.851Z,530
2017-05-22T07:21:18.026Z,535
2017-05-22T07:22:40.211Z,530
2017-05-22T07:24:02.842Z,530
2017-05-22T07:25:24.701Z,530
2017-05-22T07:26:46.599Z,530
2017-05-22T07:28:09.140Z,540
2017-05-22T07:29:30.681Z,540
2017-05-22T07:30:52.210Z,530
2017-05-22T07:32:14.801Z,530
2017-05-22T07:33:37.009Z,530
2017-05-22T07:34:58.579Z,520
2017-05-22T07:36:20.749Z,520
2017-05-22T07:37:41.990Z,530
2017-05-22T07:39:03.509Z,515
2017-05-22T07:40:25.368Z,505
2017-05-22T07:41:47.331Z,505
2017-05-22T07:43:09.605Z,500
2017-05-22T07:44:31.437Z,495
2017-05-22T07:45:53.315Z,490
2017-05-22T07:47:14.869Z,480
2017-05-22T07:48:37.039Z,470
2017-05-22T07:49:58.893Z,470
2017-05-22T07:51:20.126Z,470
2017-05-22T07:52:41.982Z,470
2017-05-22T07:54:03.849Z,485
2017-05-22T07:55:26.339Z,485
2017-05-22T07:56:48.240Z,475
2017-05-22T07:58:10.409Z,475
2017-05-22T07:59:32.579Z,480
2017-05-22T08:00:54.798Z,480
2017-05-22T08:02:16.761Z,465
2017-05-22T08:03:38.942Z,485
2017-05-22T08:05:00.491Z,485
2017-05-22T08:06:22.699Z,455
2017-05-22T08:07:44.557Z,445
2017-05-22T08:09:06.778Z,460
2017-05-22T08:10:28.639Z,370
2017-05-22T08:11:51.091Z,285
2017-05-22T08:13:13.301Z,275
2017-05-22T08:14:35.582Z,275
2017-05-22T08:15:57.867Z,270
2017-05-22T08:17:20.108Z,265
2017-05-22T08:18:41.351Z,265
2017-05-22T08:20:03.531Z,260
2017-05-22T08:21:26.032Z,260
2017-05-22T08:22:48.490Z,260
2017-05-22T08:24:10.035Z,260
2017-05-22T08:25:31.887Z,260
2017-05-22T08:26:54.109Z,260
2017-05-22T08:28:16.569Z,255
2017-05-22T08:29:38.111Z,255
2017-05-22T08:30:59.981Z,255
2017-05-22T08:32:22.499Z,255
2017-05-22T08:33:45.388Z,255
2017-05-22T08:35:07.872Z,255
2017-05-22T08:36:30.461Z,255
2017-05-22T08:37:53.024Z,255
2017-05-22T08:39:15.828Z,255
2017-05-22T08:40:37.429Z,255
2017-05-22T08:41:58.970Z,255
2017-05-22T08:43:21.119Z,255
2017-05-22T08:44:43.659Z,255
2017-05-22T08:46:05.551Z,255
2017-05-22T08:47:27.718Z,250
2017-05-22T08:48:49.572Z,250
2017-05-22T08:50:11.674Z,250
2017-05-22T08:51:33.658Z,250
2017-05-22T08:52:55.570Z,250
2017-05-22T08:54:17.441Z,250
2017-05-22T08:55:39.637Z,250
2017-05-22T08:57:01.167Z,250
2017-05-22T08:58:22.450Z,250
2017-05-22T08:59:44.936Z,250
2017-05-22T09:01:07.399Z,250
2017-05-22T09:02:29.669Z,250
2017-05-22T09:03:51.858Z,250
2017-05-22T09:05:13.699Z,250
2017-05-22T09:06:36.126Z,245
2017-05-22T09:07:57.741Z,245
2017-05-22T09:09:19.588Z,250
2017-05-22T09:10:41.243Z,245
2017-05-22T09:12:03.352Z,245
2017-05-22T09:13:25.851Z,245
2017-05-22T09:14:47.684Z,245
2017-05-22T09:16:09.850Z,245
2017-05-22T09:17:31.419Z,245
2017-05-22T09:18:52.631Z,240
2017-05-22T09:20:14.499Z,240
2017-05-22T09:21:36.682Z,245
2017-05-22T09:22:59.207Z,245
2017-05-22T09:24:21.049Z,245
2017-05-22T09:25:42.697Z,255
2017-05-22T09:27:04.929Z,260
2017-05-22T09:28:27.389Z,260
2017-05-22T09:29:48.938Z,240
2017-05-22T09:31:11.072Z,230
2017-05-22T09:32:33.361Z,235
2017-05-22T09:33:55.841Z,245
2017-05-22T09:35:17.997Z,260
2017-05-22T09:36:39.851Z,310
2017-05-22T09:38:02.021Z,350
2017-05-22T09:39:24.838Z,350
2017-05-22T09:40:46.809Z,385
2017-05-22T09:42:08.692Z,405
2017-05-22T09:43:30.595Z,420
2017-05-22T09:44:53.291Z,435
2017-05-22T09:46:15.162Z,405
2017-05-22T09:47:36.711Z,390
2017-05-22T09:48:59.098Z,360
2017-05-22T09:50:21.198Z,360
2017-05-22T09:51:42.782Z,335
2017-05-22T09:53:04.929Z,310
2017-05-22T09:54:27.103Z,310
2017-05-22T09:55:49.328Z,310
2017-05-22T09:57:10.528Z,320
2017-05-22T09:58:32.359Z,320
2017-05-22T09:59:54.727Z,335
2017-05-22T10:01:17.147Z,345
2017-05-22T10:02:39.010Z,340
2017-05-22T10:04:00.589Z,320
2017-05-22T10:05:22.796Z,295
2017-05-22T10:06:44.001Z,295
2017-05-22T10:08:06.177Z,285
2017-05-22T10:09:28.432Z,275
2017-05-22T10:10:50.278Z,250
2017-05-22T10:12:13.118Z,260
2017-05-22T10:13:34.965Z,260
2017-05-22T10:14:56.821Z,265
2017-05-22T10:16:19.029Z,265
2017-05-22T10:17:41.969Z,260
2017-05-22T10:19:04.477Z,255
2017-05-22T10:20:26.627Z,255
2017-05-22T10:21:49.152Z,255
2017-05-22T10:23:11.608Z,260
2017-05-22T10:24:33.575Z,260
2017-05-22T10:25:55.421Z,255
2017-05-22T10:27:17.273Z,255
2017-05-22T10:28:39.770Z,260
2017-05-22T10:30:01.943Z,260
2017-05-22T10:31:23.919Z,265
2017-05-22T10:32:45.498Z,250
2017-05-22T10:34:07.643Z,255
2017-05-22T10:35:29.492Z,265
2017-05-22T10:36:51.647Z,240
2017-05-22T10:38:13.806Z,260
2017-05-22T10:39:36.328Z,280
2017-05-22T10:40:58.224Z,300
2017-05-22T10:42:20.781Z,310
2017-05-22T10:43:42.690Z,320
2017-05-22T10:45:04.827Z,335
2017-05-22T10:46:26.349Z,350
2017-05-22T10:47:47.689Z,355
2017-05-22T10:49:09.636Z,355
2017-05-22T10:50:31.588Z,340
2017-05-22T10:51:53.538Z,345
2017-05-22T10:53:16.015Z,335
2017-05-22T10:54:37.639Z,310
2017-05-22T10:55:59.829Z,300
2017-05-22T10:57:21.575Z,290
2017-05-22T10:58:43.120Z,280
2017-05-22T11:00:05.167Z,275
2017-05-22T11:01:27.042Z,265
2017-05-22T11:02:48.669Z,265
2017-05-22T11:04:11.142Z,260
2017-05-22T11:05:32.989Z,260
2017-05-22T11:06:54.649Z,235
2017-05-22T11:08:16.850Z,235
2017-05-22T11:09:38.369Z,265
2017-05-22T11:11:00.224Z,255
2017-05-22T11:12:22.660Z,255
2017-05-22T11:13:44.987Z,270
2017-05-22T11:15:06.855Z,285
2017-05-22T11:16:28.700Z,315
2017-05-22T11:17:50.941Z,325
2017-05-22T11:19:12.782Z,320
2017-05-22T11:20:34.322Z,315
2017-05-22T11:21:56.272Z,315
2017-05-22T11:23:18.167Z,310
2017-05-22T11:24:40.329Z,320
2017-05-22T11:26:01.916Z,335
2017-05-22T11:27:24.110Z,340
2017-05-22T11:28:46.117Z,335
2017-05-22T11:30:08.722Z,340
2017-05-22T11:31:30.571Z,320
2017-05-22T11:32:52.431Z,310
2017-05-22T11:34:14.519Z,285
2017-05-22T11:35:36.703Z,275
2017-05-22T11:36:58.923Z,270
2017-05-22T11:38:20.799Z,265
2017-05-22T11:39:43.332Z,240
2017-05-22T11:41:05.169Z,240
2017-05-22T11:42:27.339Z,225
2017-05-22T11:43:49.230Z,225
2017-05-22T11:45:12.008Z,225
2017-05-22T11:46:34.525Z,255
2017-05-22T11:47:56.599Z,235
2017-05-22T11:49:18.207Z,250
2017-05-22T11:50:40.999Z,270
2017-05-22T11:52:02.833Z,280
2017-05-22T11:53:25.319Z,300
2017-05-22T11:54:47.177Z,310
2017-05-22T11:56:09.920Z,300
2017-05-22T11:57:32.142Z,295
2017-05-22T11:58:54.633Z,290
2017-05-22T12:00:16.805Z,285
2017-05-22T12:01:38.640Z,290
2017-05-22T12:03:00.809Z,300
2017-05-22T12:04:22.979Z,290
2017-05-22T12:05:44.854Z,275
2017-05-22T12:07:07.267Z,275
2017-05-22T12:08:29.109Z,280
2017-05-22T12:09:50.741Z,250
2017-05-22T12:11:12.979Z,260
2017-05-22T12:12:35.488Z,255
2017-05-22T12:13:57.359Z,250
2017-05-22T12:15:19.249Z,255
2017-05-22T12:16:41.251Z,260
2017-05-22T12:18:03.754Z,275
2017-05-22T12:19:25.590Z,275
2017-05-22T12:20:47.798Z,275
2017-05-22T12:22:09.985Z,275
2017-05-22T12:23:32.174Z,275
2017-05-22T12:24:54.355Z,275
2017-05-22T12:26:16.516Z,275
2017-05-22T12:27:38.346Z,285
2017-05-22T12:29:00.841Z,290
2017-05-22T12:30:23.306Z,315
2017-05-22T12:31:45.558Z,345
2017-05-22T12:33:07.429Z,360
2017-05-22T12:34:29.988Z,370
2017-05-22T12:35:52.159Z,380
2017-05-22T12:37:13.729Z,380
2017-05-22T12:38:35.580Z,365
2017-05-22T12:39:57.678Z,365
2017-05-22T12:41:19.869Z,375
2017-05-22T12:42:41.727Z,355
2017-05-22T12:44:03.638Z,320
2017-05-22T12:45:26.248Z,325
2017-05-22T12:46:48.419Z,305
2017-05-22T12:48:09.938Z,290
2017-05-22T12:49:32.118Z,275
2017-05-22T12:50:54.528Z,275
2017-05-22T12:52:16.702Z,275
2017-05-22T12:53:39.181Z,270
2017-05-22T12:55:01.399Z,275
2017-05-22T12:56:23.925Z,265
2017-05-22T12:57:46.435Z,285
2017-05-22T12:59:08.617Z,280
2017-05-22T13:00:30.471Z,285
2017-05-22T13:01:52.988Z,285
2017-05-22T13:03:15.150Z,290
2017-05-22T13:04:37.050Z,275
2017-05-22T13:05:59.538Z,270
2017-05-22T13:07:22.022Z,280
2017-05-22T13:08:44.178Z,295
2017-05-22T13:10:05.828Z,295
2017-05-22T13:11:28.321Z,295
2017-05-22T13:12:50.518Z,300
2017-05-22T13:14:13.008Z,290
2017-05-22T13:15:35.527Z,295
2017-05-22T13:16:57.677Z,275
2017-05-22T13:18:20.309Z,265
2017-05-22T13:19:42.267Z,255
2017-05-22T13:21:04.769Z,250
2017-05-22T13:22:27.360Z,240
2017-05-22T13:23:49.586Z,240
2017-05-22T13:25:11.879Z,250
2017-05-22T13:26:33.750Z,255
2017-05-22T13:27:55.972Z,255
2017-05-22T13:29:18.299Z,255
2017-05-22T13:30:40.468Z,265
2017-05-22T13:32:02.363Z,270
2017-05-22T13:33:24.340Z,280
2017-05-22T13:34:45.953Z,280
2017-05-22T13:36:07.911Z,275
2017-05-22T13:37:29.562Z,265
2017-05-22T13:38:52.027Z,255
2017-05-22T13:40:14.507Z,240
2017-05-22T13:41:36.408Z,230
2017-05-22T13:42:58.360Z,230
2017-05-22T13:44:20.838Z,235
2017-05-22T13:45:43.741Z,245
2017-05-22T13:47:05.907Z,245
2017-05-22T13:48:28.385Z,240
2017-05-22T13:49:50.859Z,240
2017-05-22T13:51:12.652Z,235
2017-05-22T13:52:34.549Z,250
2017-05-22T13:53:56.378Z,250
2017-05-22T13:55:18.619Z,250
2017-05-22T13:56:41.145Z,250
2017-05-22T13:58:03.329Z,235
2017-05-22T13:59:25.827Z,235
2017-05-22T14:00:48.390Z,245
2017-05-22T14:02:10.947Z,265
2017-05-22T14:03:32.811Z,270
2017-05-22T14:04:54.680Z,290
2017-05-22T14:06:16.537Z,295
2017-05-22T14:07:38.388Z,280
2017-05-22T14:09:00.897Z,265
2017-05-22T14:10:22.748Z,270
2017-05-22T14:11:45.045Z,270
2017-05-22T14:13:07.521Z,270
2017-05-22T14:14:29.697Z,275
2017-05-22T14:15:51.567Z,270
2017-05-22T14:17:13.202Z,250
2017-05-22T14:18:35.412Z,245
2017-05-22T14:19:56.629Z,240
2017-05-22T14:21:18.479Z,245
2017-05-22T14:22:40.355Z,250
2017-05-22T14:24:02.884Z,250
2017-05-22T14:25:25.068Z,255
2017-05-22T14:26:47.539Z,260
2017-05-22T14:28:09.508Z,265
2017-05-22T14:29:32.030Z,260
2017-05-22T14:30:53.550Z,255
2017-05-22T14:32:15.728Z,245
2017-05-22T14:33:37.918Z,245
2017-05-22T14:35:00.430Z,255
2017-05-22T14:36:22.608Z,265
2017-05-22T14:37:44.898Z,280
2017-05-22T14:39:06.779Z,290
2017-05-22T14:40:28.973Z,300
2017-05-22T14:41:50.830Z,310
2017-05-22T14:43:12.395Z,305
2017-05-22T14:44:34.889Z,290
2017-05-22T14:45:57.147Z,280
2017-05-22T14:47:18.998Z,270
2017-05-22T14:48:41.176Z,265
2017-05-22T14:50:03.669Z,255
2017-05-22T14:51:26.131Z,245
2017-05-22T14:52:47.971Z,240
2017-05-22T14:54:10.183Z,235
2017-05-22T14:55:32.810Z,230
2017-05-22T14:56:55.287Z,230
2017-05-22T14:58:17.139Z,230
2017-05-22T14:59:38.998Z,230
2017-05-22T15:01:01.147Z,230
2017-05-22T15:02:23.949Z,230
2017-05-22T15:03:46.209Z,235
2017-05-22T15:05:08.541Z,235
2017-05-22T15:06:30.869Z,235
2017-05-22T15:07:53.343Z,240
2017-05-22T15:09:14.990Z,240
2017-05-22T15:10:37.182Z,245
2017-05-22T15:11:59.080Z,250
2017-05-22T15:13:20.905Z,255
2017-05-22T15:14:42.706Z,260
2017-05-22T15:16:04.905Z,265
2017-05-22T15:17:27.079Z,265
2017-05-22T15:18:49.247Z,275
2017-05-22T15:20:12.709Z,290
2017-05-22T15:21:34.867Z,310
2017-05-22T15:22:56.500Z,320
2017-05-22T15:24:18.983Z,325
2017-05-22T15:25:41.160Z,320
2017-05-22T15:27:03.020Z,315
2017-05-22T15:28:25.010Z,310
2017-05-22T15:29:47.504Z,295
2017-05-22T15:31:09.039Z,290
2017-05-22T15:32:31.529Z,295
2017-05-22T15:33:53.799Z,295
2017-05-22T15:35:16.540Z,300
2017-05-22T15:36:39.042Z,295
2017-05-22T15:38:01.544Z,290
2017-05-22T15:39:24.076Z,280
2017-05-22T15:40:46.350Z,280
2017-05-22T15:42:08.571Z,265
2017-05-22T15:43:30.810Z,260
2017-05-22T15:44:52.675Z,250
2017-05-22T15:46:15.474Z,240
2017-05-22T15:47:37.979Z,235
2017-05-22T15:49:00.222Z,230
2017-05-22T15:50:22.091Z,225
2017-05-22T15:51:44.658Z,225
2017-05-22T15:53:06.528Z,220
2017-05-22T15:54:28.441Z,205
2017-05-22T15:55:50.605Z,205
2017-05-22T15:57:13.032Z,190
2017-05-22T15:58:35.195Z,195
2017-05-22T15:59:57.039Z,200
2017-05-22T16:01:19.269Z,200
2017-05-22T16:02:41.737Z,195
2017-05-22T16:04:04.034Z,195
2017-05-22T16:05:26.100Z,195
2017-05-22T16:06:48.361Z,195
2017-05-22T16:08:10.930Z,190
2017-05-22T16:09:33.130Z,185
2017-05-22T16:10:55.314Z,180
2017-05-22T16:12:17.637Z,175
2017-05-22T16:13:40.118Z,175
2017-05-22T16:15:02.072Z,175
2017-05-22T16:16:23.987Z,170
2017-05-22T16:17:45.852Z,175
2017-05-22T16:19:08.303Z,175
2017-05-22T16:20:30.603Z,175
2017-05-22T16:21:53.102Z,175
2017-05-22T16:23:15.663Z,185
2017-05-22T16:24:38.452Z,185
2017-05-22T16:26:00.956Z,185
2017-05-22T16:27:23.143Z,170
2017-05-22T16:28:45.712Z,165
2017-05-22T16:30:08.520Z,165
2017-05-22T16:31:31.212Z,165
2017-05-22T16:32:53.710Z,165
2017-05-22T16:34:15.872Z,165
2017-05-22T16:35:38.271Z,170
2017-05-22T16:37:00.469Z,165
2017-05-22T16:38:22.660Z,170
2017-05-22T16:39:45.512Z,175
2017-05-22T16:41:08.001Z,175
2017-05-22T16:42:30.162Z,175
2017-05-22T16:43:52.660Z,175
2017-05-22T16:45:14.964Z,170
2017-05-22T16:46:38.783Z,170
2017-05-22T16:48:00.983Z,170
2017-05-22T16:49:23.223Z,170
2017-05-22T16:50:45.396Z,170
2017-05-22T16:52:08.229Z,170
2017-05-22T16:53:30.872Z,160
2017-05-22T16:54:53.135Z,160
2017-05-22T16:56:15.468Z,150
2017-05-22T16:57:38.112Z,150
2017-05-22T16:59:00.328Z,145
2017-05-22T17:00:22.273Z,145
2017-05-22T17:01:44.826Z,140
2017-05-22T17:03:06.618Z,135
2017-05-22T17:04:28.614Z,135
2017-05-22T17:05:50.512Z,135
2017-05-22T17:07:11.848Z,130
2017-05-22T17:08:34.477Z,125
2017-05-22T17:09:56.021Z,120
2017-05-22T17:11:18.239Z,110
2017-05-22T17:12:40.112Z,110
2017-05-22T17:14:02.957Z,110
2017-05-22T17:15:25.160Z,105
2017-05-22T17:16:47.670Z,105
2017-05-22T17:18:09.556Z,105
2017-05-22T17:19:31.786Z,105
2017-05-22T17:20:53.972Z,110
2017-05-22T17:22:16.235Z,115
2017-05-22T17:23:38.755Z,115
2017-05-22T17:25:01.278Z,115
2017-05-22T17:26:23.491Z,115
2017-05-22T17:27:46.041Z,115
2017-05-22T17:29:08.574Z,115
2017-05-22T17:30:31.160Z,115
2017-05-22T17:31:53.401Z,115
2017-05-22T17:33:16.008Z,115
2017-05-22T17:34:38.219Z,115
2017-05-22T17:36:00.761Z,115
2017-05-22T17:37:23.281Z,115
2017-05-22T17:38:45.646Z,110
2017-05-22T17:40:07.520Z,110
2017-05-22T17:41:30.118Z,110
2017-05-22T17:42:52.609Z,105
2017-05-22T17:44:14.476Z,105
2017-05-22T17:45:36.653Z,105
2017-05-22T17:46:59.142Z,100
2017-05-22T17:48:21.735Z,100
2017-05-22T17:49:44.241Z,100
2017-05-22T17:51:06.825Z,95
2017-05-22T17:52:29.309Z,95
2017-05-22T17:53:51.914Z,95
2017-05-22T17:55:13.577Z,95
2017-05-22T17:56:36.087Z,95
2017-05-22T17:57:58.549Z,105
2017-05-22T17:59:20.798Z,100
2017-05-22T18:00:42.959Z,100
2017-05-22T18:02:05.471Z,105
2017-05-22T18:03:27.729Z,110
2017-05-22T18:04:49.993Z,110
2017-05-22T18:06:12.461Z,115
2017-05-22T18:07:34.964Z,120
2017-05-22T18:08:57.499Z,120
2017-05-22T18:10:19.349Z,120
2017-05-22T18:11:41.543Z,120
2017-05-22T18:13:04.111Z,120
2017-05-22T18:14:26.611Z,120
2017-05-22T18:15:49.188Z,120
2017-05-22T18:17:11.452Z,120
2017-05-22T18:18:33.752Z,115
2017-05-22T18:19:56.609Z,115
2017-05-22T18:21:18.527Z,115
2017-05-22T18:22:41.139Z,110
2017-05-22T18:24:03.647Z,105
2017-05-22T18:25:26.403Z,105
2017-05-22T18:26:48.920Z,100
2017-05-22T18:28:11.104Z,100
2017-05-22T18:29:33.299Z,100
2017-05-22T18:30:55.780Z,95
2017-05-22T18:32:17.636Z,95
2017-05-22T18:33:39.830Z,90
2017-05-22T18:35:02.038Z,90
2017-05-22T18:36:24.858Z,85
2017-05-22T18:37:46.416Z,80
2017-05-22T18:39:08.931Z,80
2017-05-22T18:40:31.139Z,75
2017-05-22T18:41:53.362Z,75
2017-05-22T18:43:15.227Z,70
2017-05-22T18:44:37.398Z,65
2017-05-22T18:46:00.017Z,65
2017-05-22T18:47:21.910Z,60
2017-05-22T18:48:43.780Z,60
2017-05-22T18:50:06.277Z,55
2017-05-22T18:51:28.150Z,50
2017-05-22T18:52:50.996Z,50
2017-05-22T18:54:13.562Z,45
2017-05-22T18:55:36.065Z,45
2017-05-22T18:56:57.952Z,45
2017-05-22T18:58:19.898Z,40
2017-05-22T18:59:42.386Z,35
2017-05-22T19:01:04.248Z,35
2017-05-22T19:02:26.770Z,30
2017-05-22T19:03:48.628Z,30
2017-05-22T19:05:10.857Z,25
2017-05-22T19:06:33.098Z,25
2017-05-22T19:07:55.387Z,20